ETH712 HAAB-LIRF
Flight info
| Callsign | ETH712 |
|---|---|
| Flight time | N/A |
| Altitude | 40000 |
| Route | LABLA3A LABLA UT124 ALRAP/N0486F390 DCT KSL DCT PSD/N0484F400 P751 METRU UM872 LATAN DCT LUPAL DCT GRT DCT MOKTO DCT LUXIL DCT IPKAM DCT TEA/N0387F180 Z803 LAT |
| Aircraft | A359/H-SDE2E3GHIJ3J4J5LM1ORWXY/LB1D1 |
Departure
| Time | 2026-05-04 15:16 |
|---|---|
| Airport | Addis Ababa Bole International Airport (HAAB) |
Arrival
| Time | N/A |
|---|---|
| Airport | Rome–Fiumicino Leonardo da Vinci International Airport (LIRF) |
| Time | Latitude | Longitude | Altitude | Speed | Heading |
|---|---|---|---|---|---|
| 2026-05-04 14:48 | 8.98262 | 38.79722 | 7629 ft | 0 kts | 341° |
| 2026-05-04 15:04 | 8.98252 | 38.79726 | 7628 ft | 4 kts | 337° |
| 2026-05-04 15:04 | 8.98237 | 38.79733 | 7628 ft | 4 kts | 327° |
| 2026-05-04 15:04 | 8.98216 | 38.79750 | 7632 ft | 4 kts | 305° |
| 2026-05-04 15:04 | 8.98206 | 38.79774 | 7634 ft | 4 kts | 267° |
| 2026-05-04 15:05 | 8.98207 | 38.79784 | 7634 ft | 0 kts | 253° |
| 2026-05-04 15:08 | 8.98206 | 38.79781 | 7634 ft | 2 kts | 253° |
| 2026-05-04 15:08 | 8.98194 | 38.79740 | 7627 ft | 11 kts | 253° |
| 2026-05-04 15:09 | 8.98150 | 38.79660 | 7627 ft | 14 kts | 221° |
| 2026-05-04 15:09 | 8.98103 | 38.79602 | 7627 ft | 10 kts | 248° |
| 2026-05-04 15:09 | 8.98083 | 38.79535 | 7627 ft | 10 kts | 253° |
| 2026-05-04 15:10 | 8.98012 | 38.79293 | 7627 ft | 24 kts | 253° |
| 2026-05-04 15:10 | 8.97966 | 38.79135 | 7627 ft | 23 kts | 253° |
| 2026-05-04 15:10 | 8.97878 | 38.78832 | 7627 ft | 21 kts | 253° |
| 2026-05-04 15:11 | 8.97840 | 38.78748 | 7627 ft | 8 kts | 212° |
| 2026-05-04 15:11 | 8.97792 | 38.78756 | 7627 ft | 9 kts | 161° |
| 2026-05-04 15:11 | 8.97723 | 38.78777 | 7627 ft | 12 kts | 163° |
| 2026-05-04 15:11 | 8.97631 | 38.78805 | 7627 ft | 14 kts | 163° |
| 2026-05-04 15:12 | 8.97565 | 38.78797 | 7628 ft | 8 kts | 231° |
| 2026-05-04 15:12 | 8.97542 | 38.78734 | 7628 ft | 13 kts | 254° |
| 2026-05-04 15:12 | 8.97510 | 38.78619 | 7628 ft | 21 kts | 254° |
| 2026-05-04 15:12 | 8.97461 | 38.78451 | 7628 ft | 26 kts | 252° |
| 2026-05-04 15:13 | 8.97417 | 38.78301 | 7628 ft | 12 kts | 250° |
| 2026-05-04 15:13 | 8.97376 | 38.78278 | 7627 ft | 5 kts | 171° |
| 2026-05-04 15:13 | 8.97340 | 38.78298 | 7627 ft | 6 kts | 145° |
| 2026-05-04 15:13 | 8.97302 | 38.78325 | 7626 ft | 7 kts | 144° |
| 2026-05-04 15:14 | 8.97260 | 38.78355 | 7625 ft | 7 kts | 144° |
| 2026-05-04 15:14 | 8.97242 | 38.78391 | 7625 ft | 5 kts | 89° |
| 2026-05-04 15:14 | 8.97248 | 38.78418 | 7626 ft | 3 kts | 75° |
| 2026-05-04 15:14 | 8.97253 | 38.78434 | 7626 ft | 1 kts | 72° |
| 2026-05-04 15:15 | 8.97255 | 38.78440 | 7626 ft | 4 kts | 72° |
| 2026-05-04 15:15 | 8.97304 | 38.78605 | 7627 ft | 56 kts | 73° |
| 2026-05-04 15:15 | 8.97476 | 38.79192 | 7626 ft | 119 kts | 73° |
| 2026-05-04 15:16 | 8.98106 | 38.81322 | 8398 ft | 167 kts | 75° |
| 2026-05-04 15:16 | 8.98409 | 38.82481 | 9062 ft | 174 kts | 77° |
| 2026-05-04 15:16 | 8.98960 | 38.84983 | 9511 ft | 192 kts | 78° |
| 2026-05-04 15:17 | 8.99260 | 38.86342 | 9710 ft | 204 kts | 77° |
| 2026-05-04 15:17 | 9.00110 | 38.89233 | 10166 ft | 224 kts | 73° |
| 2026-05-04 15:17 | 9.00565 | 38.90771 | 10415 ft | 233 kts | 73° |
| 2026-05-04 15:18 | 9.01016 | 38.92373 | 10697 ft | 241 kts | 74° |
| 2026-05-04 15:18 | 9.01457 | 38.94044 | 10984 ft | 250 kts | 75° |
| 2026-05-04 15:18 | 9.01879 | 38.95781 | 11299 ft | 257 kts | 76° |
| 2026-05-04 15:19 | 9.02624 | 38.99308 | 12206 ft | 258 kts | 77° |
| 2026-05-04 15:19 | 9.03247 | 39.00994 | 12555 ft | 260 kts | 53° |
| 2026-05-04 15:19 | 9.06560 | 39.02255 | 13149 ft | 278 kts | 349° |
| 2026-05-04 15:20 | 9.08270 | 39.01311 | 13408 ft | 295 kts | 319° |
| 2026-05-04 15:20 | 9.09384 | 38.99522 | 13722 ft | 310 kts | 294° |
| 2026-05-04 15:20 | 9.09757 | 38.97328 | 14065 ft | 322 kts | 271° |
| 2026-05-04 15:20 | 9.09571 | 38.95121 | 14852 ft | 308 kts | 266° |
| 2026-05-04 15:21 | 9.09486 | 38.93010 | 15598 ft | 293 kts | 279° |
| 2026-05-04 15:21 | 9.09963 | 38.91064 | 16212 ft | 281 kts | 295° |
| 2026-05-04 15:21 | 9.11607 | 38.87553 | 17103 ft | 279 kts | 302° |
| 2026-05-04 15:22 | 9.15313 | 38.82101 | 17485 ft | 310 kts | 309° |
| 2026-05-04 15:22 | 9.22098 | 38.75989 | 18156 ft | 347 kts | 329° |
| 2026-05-04 15:22 | 9.39767 | 38.64530 | 19307 ft | 405 kts | 329° |
| 2026-05-04 15:23 | 9.49509 | 38.58559 | 20416 ft | 413 kts | 330° |
| 2026-05-04 15:23 | 9.59404 | 38.52480 | 21406 ft | 420 kts | 330° |
| 2026-05-04 15:23 | 9.69457 | 38.46295 | 22380 ft | 426 kts | 329° |
| 2026-05-04 15:23 | 9.79676 | 38.40002 | 23265 ft | 433 kts | 329° |
| 2026-05-04 15:24 | 10.00481 | 38.27175 | 24770 ft | 442 kts | 329° |
| 2026-05-04 15:24 | 10.21752 | 38.14041 | 26188 ft | 452 kts | 329° |
| 2026-05-04 15:25 | 10.32541 | 38.07371 | 26913 ft | 458 kts | 329° |
| 2026-05-04 15:25 | 10.43495 | 38.00593 | 27682 ft | 462 kts | 328° |
| 2026-05-04 15:25 | 10.54546 | 37.93750 | 28473 ft | 467 kts | 328° |
| 2026-05-04 15:26 | 10.77343 | 37.80431 | 29969 ft | 477 kts | 329° |
| 2026-05-04 15:26 | 10.88945 | 37.73666 | 30663 ft | 482 kts | 329° |
| 2026-05-04 15:26 | 11.12396 | 37.59974 | 31892 ft | 494 kts | 329° |
| 2026-05-04 15:27 | 11.24346 | 37.52988 | 32512 ft | 498 kts | 328° |
| 2026-05-04 15:27 | 11.48576 | 37.38803 | 33722 ft | 504 kts | 329° |
| 2026-05-04 15:28 | 11.72957 | 37.25103 | 35427 ft | 496 kts | 331° |
| 2026-05-04 15:28 | 11.85189 | 37.18636 | 36246 ft | 494 kts | 330° |
| 2026-05-04 15:28 | 12.09381 | 37.05702 | 37869 ft | 489 kts | 331° |
| 2026-05-04 15:29 | 12.21405 | 36.99264 | 38600 ft | 486 kts | 331° |
| 2026-05-04 15:30 | 12.69296 | 36.73557 | 39786 ft | 486 kts | 330° |
| 2026-05-04 15:30 | 13.05514 | 36.54651 | 39750 ft | 486 kts | 331° |
| 2026-05-04 15:31 | 13.41716 | 36.35745 | 39722 ft | 485 kts | 331° |
| 2026-05-04 15:32 | 13.80593 | 36.26734 | 39711 ft | 494 kts | 1° |
| 2026-05-04 15:32 | 14.07556 | 36.31703 | 39708 ft | 498 kts | 14° |
| 2026-05-04 15:33 | 14.33174 | 36.42718 | 39710 ft | 501 kts | 27° |
| 2026-05-04 15:34 | 14.66562 | 36.68959 | 39727 ft | 506 kts | 44° |
| 2026-05-04 15:34 | 15.02115 | 36.87160 | 39746 ft | 496 kts | 2° |
| 2026-05-04 15:35 | 15.43454 | 36.90500 | 39744 ft | 496 kts | 2° |
| 2026-05-04 15:36 | 15.84730 | 36.93938 | 39734 ft | 495 kts | 3° |
| 2026-05-04 15:36 | 16.12192 | 36.96233 | 39729 ft | 495 kts | 3° |
| 2026-05-04 15:37 | 16.39681 | 36.98536 | 39744 ft | 497 kts | 2° |
| 2026-05-04 15:37 | 16.67362 | 37.00861 | 39756 ft | 499 kts | 2° |
| 2026-05-04 15:38 | 16.94821 | 37.03174 | 39778 ft | 499 kts | 2° |
| 2026-05-04 15:38 | 17.22568 | 37.05524 | 39775 ft | 499 kts | 1° |
| 2026-05-04 15:39 | 17.50300 | 37.07873 | 39797 ft | 500 kts | 1° |
| 2026-05-04 15:40 | 17.91792 | 37.11405 | 39828 ft | 498 kts | 2° |
| 2026-05-04 15:40 | 18.19480 | 37.13772 | 39852 ft | 498 kts | 1° |
| 2026-05-04 15:41 | 18.42427 | 37.15743 | 39868 ft | 499 kts | 2° |
| 2026-05-04 15:41 | 18.70183 | 37.18125 | 39868 ft | 501 kts | 2° |
| 2026-05-04 15:42 | 19.02611 | 37.20923 | 39861 ft | 503 kts | 1° |
| 2026-05-04 15:42 | 19.25963 | 37.22944 | 39859 ft | 503 kts | 1° |
| 2026-05-04 15:42 | 19.39821 | 37.22917 | 39858 ft | 492 kts | 342° |
| 2026-05-04 15:43 | 19.51791 | 37.16558 | 39856 ft | 481 kts | 322° |
| 2026-05-04 15:43 | 19.74056 | 37.01187 | 39867 ft | 478 kts | 323° |
| 2026-05-04 15:44 | 19.96384 | 36.86011 | 39884 ft | 475 kts | 322° |
| 2026-05-04 15:44 | 20.18623 | 36.70835 | 39880 ft | 473 kts | 322° |
| 2026-05-04 15:45 | 20.40747 | 36.55685 | 39862 ft | 472 kts | 322° |
| 2026-05-04 15:45 | 20.62824 | 36.40515 | 39840 ft | 473 kts | 322° |
| 2026-05-04 15:46 | 20.84938 | 36.25260 | 39842 ft | 473 kts | 322° |
| 2026-05-04 15:46 | 21.07054 | 36.09959 | 39839 ft | 472 kts | 321° |
| 2026-05-04 15:47 | 21.29083 | 35.94660 | 39831 ft | 468 kts | 320° |
| 2026-05-04 15:47 | 21.50869 | 35.79466 | 39864 ft | 467 kts | 320° |
| 2026-05-04 15:48 | 21.72506 | 35.64329 | 39877 ft | 461 kts | 319° |
| 2026-05-04 15:48 | 22.04617 | 35.41796 | 39904 ft | 463 kts | 320° |
| 2026-05-04 15:49 | 22.26237 | 35.26751 | 39909 ft | 464 kts | 319° |
| 2026-05-04 15:49 | 22.47850 | 35.11651 | 39908 ft | 462 kts | 319° |
| 2026-05-04 15:50 | 22.69413 | 34.96527 | 39907 ft | 462 kts | 319° |
| 2026-05-04 15:50 | 22.91019 | 34.81315 | 39900 ft | 462 kts | 318° |
| 2026-05-04 15:51 | 23.12556 | 34.66096 | 39903 ft | 461 kts | 318° |
| 2026-05-04 15:51 | 23.34050 | 34.50843 | 39911 ft | 461 kts | 318° |
| 2026-05-04 15:52 | 23.55505 | 34.35561 | 39917 ft | 461 kts | 318° |
| 2026-05-04 15:52 | 23.76957 | 34.20220 | 39919 ft | 460 kts | 318° |
| 2026-05-04 15:53 | 23.98500 | 34.04858 | 39933 ft | 463 kts | 318° |
| 2026-05-04 15:53 | 24.20046 | 33.89464 | 39945 ft | 462 kts | 318° |
| 2026-05-04 15:54 | 24.41514 | 33.74060 | 39954 ft | 461 kts | 318° |
| 2026-05-04 15:54 | 24.62897 | 33.58657 | 39966 ft | 457 kts | 318° |
| 2026-05-04 15:55 | 24.83999 | 33.43390 | 39971 ft | 456 kts | 317° |
| 2026-05-04 15:55 | 25.05133 | 33.28036 | 39972 ft | 455 kts | 317° |
| 2026-05-04 15:56 | 25.26284 | 33.12624 | 39976 ft | 454 kts | 317° |
| 2026-05-04 15:56 | 25.47332 | 32.97193 | 39983 ft | 454 kts | 317° |
| 2026-05-04 15:57 | 25.68382 | 32.81713 | 39971 ft | 453 kts | 317° |
| 2026-05-04 15:57 | 25.77866 | 32.72978 | 39959 ft | 435 kts | 303° |
| 2026-05-04 15:57 | 25.85627 | 32.62702 | 39970 ft | 433 kts | 301° |
| 2026-05-04 15:58 | 26.01010 | 32.42104 | 39979 ft | 432 kts | 301° |
| 2026-05-04 15:58 | 26.16329 | 32.21548 | 39988 ft | 430 kts | 301° |
| 2026-05-04 15:59 | 26.31532 | 32.01050 | 39990 ft | 428 kts | 301° |
| 2026-05-04 15:59 | 26.46564 | 31.80692 | 39994 ft | 427 kts | 301° |
| 2026-05-04 16:00 | 26.61647 | 31.60173 | 40042 ft | 427 kts | 301° |
| 2026-05-04 16:00 | 26.76679 | 31.39629 | 40099 ft | 426 kts | 301° |
| 2026-05-04 16:01 | 26.91645 | 31.19080 | 40128 ft | 426 kts | 302° |
| 2026-05-04 16:01 | 27.07829 | 30.99471 | 40130 ft | 442 kts | 315° |
| 2026-05-04 16:02 | 27.27964 | 30.83478 | 40148 ft | 442 kts | 316° |
| 2026-05-04 16:03 | 27.58072 | 30.59355 | 40163 ft | 443 kts | 316° |
| 2026-05-04 16:03 | 27.78163 | 30.43168 | 40123 ft | 442 kts | 315° |
| 2026-05-04 16:04 | 27.98018 | 30.27097 | 40118 ft | 441 kts | 316° |
| 2026-05-04 16:04 | 28.27926 | 30.02749 | 40104 ft | 440 kts | 316° |
| 2026-05-04 16:05 | 28.47810 | 29.86464 | 40099 ft | 440 kts | 316° |
| 2026-05-04 16:06 | 28.77472 | 29.62029 | 40087 ft | 438 kts | 316° |
| 2026-05-04 16:07 | 29.16763 | 29.29322 | 40084 ft | 435 kts | 315° |
| 2026-05-04 16:08 | 29.55100 | 28.95892 | 40086 ft | 433 kts | 315° |
| 2026-05-04 16:09 | 30.02736 | 28.53896 | 40105 ft | 432 kts | 315° |
| 2026-05-04 16:10 | 30.41216 | 28.20492 | 40120 ft | 434 kts | 319° |
| 2026-05-04 16:11 | 30.80694 | 27.88366 | 40145 ft | 433 kts | 318° |
| 2026-05-04 16:12 | 31.39775 | 27.39584 | 40163 ft | 435 kts | 319° |